createdAt,value
2022-09-18T00:02:06.227Z,8.24
2022-09-18T00:05:08.391Z,8.27
2022-09-18T00:08:10.461Z,8.27
2022-09-18T00:11:13.396Z,8.30
2022-09-18T00:14:16.648Z,8.30
2022-09-18T00:17:19.606Z,8.33
2022-09-18T00:20:21.457Z,8.35
2022-09-18T00:23:23.000Z,8.37
2022-09-18T00:26:27.932Z,8.36
2022-09-18T00:29:29.659Z,8.37
2022-09-18T00:32:32.960Z,8.37
2022-09-18T00:35:41.467Z,8.39
2022-09-18T00:38:43.205Z,8.39
2022-09-18T00:41:45.405Z,8.40
2022-09-18T00:44:47.475Z,8.41
2022-09-18T00:47:51.471Z,8.40
2022-09-18T00:50:53.268Z,8.41
2022-09-18T00:53:58.584Z,8.42
2022-09-18T00:57:01.775Z,8.42
2022-09-18T01:00:14.612Z,8.41
2022-09-18T01:03:17.781Z,8.39
2022-09-18T01:06:25.811Z,8.37
2022-09-18T01:09:30.445Z,8.35
2022-09-18T01:12:37.870Z,8.37
2022-09-18T01:15:41.875Z,8.33
2022-09-18T01:18:49.621Z,8.35
2022-09-18T01:22:00.811Z,8.36
2022-09-18T01:25:13.618Z,8.39
2022-09-18T01:28:19.283Z,8.40
2022-09-18T01:31:26.419Z,8.43
2022-09-18T01:34:31.046Z,8.41
2022-09-18T01:37:34.842Z,8.40
2022-09-18T01:40:38.747Z,8.42
2022-09-18T01:43:44.343Z,8.44
2022-09-18T01:46:48.522Z,8.45
2022-09-18T01:49:51.155Z,8.48
2022-09-18T01:52:54.423Z,8.47
2022-09-18T01:55:59.399Z,8.46
2022-09-18T01:59:04.079Z,8.45
2022-09-18T02:02:08.659Z,8.50
2022-09-18T02:05:14.923Z,8.50
2022-09-18T02:08:20.675Z,8.50
2022-09-18T02:11:22.866Z,8.51
2022-09-18T02:14:28.536Z,8.48
2022-09-18T02:17:32.975Z,8.48
2022-09-18T02:20:36.704Z,8.45
2022-09-18T02:23:39.119Z,8.45
2022-09-18T02:26:41.626Z,8.42
2022-09-18T02:29:46.682Z,8.41
2022-09-18T02:32:48.466Z,8.43
2022-09-18T02:35:53.532Z,8.42
2022-09-18T02:39:02.064Z,8.43
2022-09-18T02:42:11.659Z,8.48
2022-09-18T02:45:22.887Z,8.46
2022-09-18T02:48:34.162Z,8.47
2022-09-18T02:51:41.817Z,8.47
2022-09-18T02:54:48.058Z,8.50
2022-09-18T02:57:53.502Z,8.51
2022-09-18T03:00:58.560Z,8.53
2022-09-18T03:04:02.880Z,8.51
2022-09-18T03:07:04.620Z,8.52
2022-09-18T03:10:07.068Z,8.52
2022-09-18T03:13:08.664Z,8.54
2022-09-18T03:16:12.189Z,8.52
2022-09-18T03:19:14.956Z,8.53
2022-09-18T03:22:16.757Z,8.56
2022-09-18T03:25:21.153Z,8.55
2022-09-18T03:28:23.039Z,8.55
2022-09-18T03:31:26.457Z,8.58
2022-09-18T03:34:28.823Z,8.57
2022-09-18T03:37:30.615Z,8.57
2022-09-18T03:40:34.305Z,8.56
2022-09-18T03:43:36.185Z,8.56
2022-09-18T03:46:39.619Z,8.55
2022-09-18T03:49:41.243Z,8.57
2022-09-18T03:52:46.617Z,8.56
2022-09-18T03:55:52.470Z,8.58
2022-09-18T03:58:54.705Z,8.60
2022-09-18T04:01:57.904Z,8.60
2022-09-18T04:05:00.593Z,8.58
2022-09-18T04:08:02.725Z,8.56
2022-09-18T04:11:05.611Z,8.53
2022-09-18T04:14:07.352Z,8.54
2022-09-18T04:17:11.148Z,8.55
2022-09-18T04:20:16.152Z,8.56
2022-09-18T04:23:18.537Z,8.58
2022-09-18T04:26:20.254Z,8.61
2022-09-18T04:29:21.689Z,8.60
2022-09-18T04:32:25.030Z,8.61
2022-09-18T04:35:26.754Z,8.64
2022-09-18T04:38:29.953Z,8.62
2022-09-18T04:41:31.648Z,8.63
2022-09-18T04:44:33.503Z,8.62
2022-09-18T04:47:37.849Z,8.62
2022-09-18T04:50:39.533Z,8.64
2022-09-18T04:53:41.515Z,8.65
2022-09-18T04:56:43.219Z,8.64
2022-09-18T04:59:45.418Z,8.63
2022-09-18T05:02:48.715Z,8.60
2022-09-18T05:05:50.384Z,8.59
2022-09-18T05:08:51.919Z,8.59
2022-09-18T05:11:54.633Z,8.59
2022-09-18T05:14:56.479Z,8.61
2022-09-18T05:18:00.313Z,8.64
2022-09-18T05:21:02.353Z,8.63
2022-09-18T05:24:04.473Z,8.62
2022-09-18T05:27:06.462Z,8.66
2022-09-18T05:30:08.641Z,8.68
2022-09-18T05:33:11.957Z,8.72
2022-09-18T05:36:16.711Z,8.73
2022-09-18T05:39:18.828Z,8.74
2022-09-18T05:42:20.688Z,8.74
2022-09-18T05:45:22.797Z,8.77
2022-09-18T05:48:25.789Z,8.78
2022-09-18T05:51:27.666Z,8.81
2022-09-18T05:54:29.662Z,8.86
2022-09-18T05:57:31.509Z,8.89
2022-09-18T06:00:35.857Z,8.90
2022-09-18T06:03:39.049Z,8.90
2022-09-18T06:06:40.825Z,8.92
2022-09-18T06:09:42.651Z,8.94
2022-09-18T06:12:44.735Z,8.96
2022-09-18T06:15:46.960Z,8.96
2022-09-18T06:18:50.227Z,8.97
2022-09-18T06:21:52.242Z,8.96
2022-09-18T06:24:54.026Z,8.99
2022-09-18T06:28:01.875Z,8.99
2022-09-18T06:31:04.416Z,9.03
2022-09-18T06:34:07.506Z,9.06
2022-09-18T06:37:09.405Z,9.07
2022-09-18T06:40:11.677Z,9.08
2022-09-18T06:43:13.332Z,9.08
2022-09-18T06:46:15.020Z,9.11
2022-09-18T06:49:18.101Z,9.09
2022-09-18T06:52:22.557Z,9.11
2022-09-18T06:55:24.564Z,9.17
2022-09-18T06:58:26.461Z,9.20
2022-09-18T07:01:28.374Z,9.25
2022-09-18T07:04:31.263Z,9.30
2022-09-18T07:07:32.900Z,9.32
2022-09-18T07:10:34.616Z,9.31
2022-09-18T07:13:37.647Z,9.37
2022-09-18T07:16:39.522Z,9.36
2022-09-18T07:19:42.898Z,9.37
2022-09-18T07:22:51.746Z,9.40
2022-09-18T07:25:55.334Z,9.40
2022-09-18T07:28:59.270Z,9.43
2022-09-18T07:32:00.843Z,9.45
2022-09-18T07:35:04.343Z,9.47
2022-09-18T07:38:06.935Z,9.48
2022-09-18T07:41:08.800Z,9.54
2022-09-18T07:44:11.728Z,9.55
2022-09-18T07:47:22.867Z,9.61
2022-09-18T07:50:26.562Z,9.65
2022-09-18T07:53:32.528Z,9.67
2022-09-18T07:56:34.852Z,9.71
2022-09-18T07:59:36.735Z,9.70
2022-09-18T08:02:41.939Z,9.69
2022-09-18T08:05:48.546Z,9.67
2022-09-18T08:08:55.108Z,9.69
2022-09-18T08:11:57.720Z,9.69
2022-09-18T08:15:02.998Z,9.75
2022-09-18T08:18:05.214Z,9.75
2022-09-18T08:21:10.766Z,9.79
2022-09-18T08:24:12.476Z,9.84
2022-09-18T08:27:14.145Z,9.93
2022-09-18T08:30:17.017Z,9.95
2022-09-18T08:33:18.887Z,9.97
2022-09-18T08:36:23.524Z,9.98
2022-09-18T08:39:25.220Z,9.98
2022-09-18T08:42:32.891Z,9.96
2022-09-18T08:45:39.439Z,9.90
2022-09-18T08:48:45.352Z,9.76
2022-09-18T08:52:01.446Z,9.62
2022-09-18T08:55:05.411Z,9.57
2022-09-18T08:58:08.162Z,9.59
2022-09-18T09:01:13.047Z,9.59
2022-09-18T09:04:19.385Z,9.55
2022-09-18T09:07:34.033Z,9.54
2022-09-18T09:10:43.414Z,9.51
2022-09-18T09:13:59.689Z,9.52
2022-09-18T09:17:04.905Z,9.49
2022-09-18T09:20:14.929Z,9.44
2022-09-18T09:23:23.091Z,9.44
2022-09-18T09:26:32.686Z,9.39
2022-09-18T09:29:38.661Z,9.45
2022-09-18T09:32:43.926Z,9.52
2022-09-18T09:35:52.397Z,9.49
2022-09-18T09:38:58.073Z,9.50
2022-09-18T09:42:05.601Z,9.46
2022-09-18T09:45:13.721Z,9.40
2022-09-18T09:48:19.474Z,9.38
2022-09-18T09:51:25.882Z,9.35
2022-09-18T09:54:32.888Z,9.30
2022-09-18T09:57:39.755Z,9.37
2022-09-18T10:00:47.977Z,9.37
2022-09-18T10:04:00.111Z,9.33
2022-09-18T10:07:05.275Z,9.32
2022-09-18T10:10:16.258Z,9.27
2022-09-18T10:13:21.643Z,9.22
2022-09-18T10:16:25.980Z,9.22
2022-09-18T10:19:35.751Z,9.21
2022-09-18T10:22:39.234Z,9.23
2022-09-18T10:25:45.340Z,9.22
2022-09-18T10:28:47.405Z,9.17
2022-09-18T10:31:55.322Z,9.17
2022-09-18T10:34:59.629Z,9.18
2022-09-18T10:38:02.017Z,9.23
2022-09-18T10:41:21.697Z,9.25
2022-09-18T10:44:27.481Z,9.26
2022-09-18T10:47:31.624Z,9.26
2022-09-18T10:50:34.608Z,9.30
2022-09-18T10:53:43.031Z,9.32
2022-09-18T10:56:47.842Z,9.40
2022-09-18T10:59:51.208Z,9.44
2022-09-18T11:03:00.015Z,9.41
2022-09-18T11:06:03.262Z,9.40
2022-09-18T11:09:11.627Z,9.34
2022-09-18T11:12:16.077Z,9.37
2022-09-18T11:15:21.866Z,9.45
2022-09-18T11:18:24.649Z,9.37
2022-09-18T11:21:27.794Z,9.35
2022-09-18T11:24:37.463Z,9.33
2022-09-18T11:27:46.989Z,9.27
2022-09-18T11:30:57.362Z,9.24
2022-09-18T11:34:02.896Z,9.16
2022-09-18T11:37:11.184Z,9.18
2022-09-18T11:40:18.020Z,9.23
2022-09-18T11:43:25.963Z,9.15
2022-09-18T11:46:41.581Z,9.12
2022-09-18T11:49:45.281Z,9.11
2022-09-18T11:52:58.900Z,9.08
2022-09-18T11:56:06.175Z,9.06
2022-09-18T11:59:12.110Z,8.96
2022-09-18T12:02:27.881Z,8.95
2022-09-18T12:05:34.241Z,8.91
2022-09-18T12:08:41.447Z,8.86
2022-09-18T12:11:49.426Z,8.79
2022-09-18T12:14:57.130Z,8.55
2022-09-18T12:18:03.432Z,8.38
2022-09-18T12:21:08.682Z,8.26
2022-09-18T12:24:16.136Z,8.29
2022-09-18T12:27:26.047Z,8.38
2022-09-18T12:30:34.068Z,8.52
2022-09-18T12:33:43.189Z,8.62
2022-09-18T12:36:53.863Z,8.69
2022-09-18T12:40:14.227Z,8.76
2022-09-18T12:43:34.615Z,8.81
2022-09-18T12:46:52.367Z,8.83
2022-09-18T12:50:07.527Z,8.85
2022-09-18T12:53:27.744Z,8.86
2022-09-18T12:56:38.857Z,8.85
2022-09-18T12:59:52.589Z,8.87
2022-09-18T13:03:01.644Z,8.87
2022-09-18T13:06:12.150Z,8.87
2022-09-18T13:09:20.842Z,8.87
2022-09-18T13:12:29.041Z,8.94
2022-09-18T13:15:36.058Z,8.96
2022-09-18T13:18:41.924Z,8.97
2022-09-18T13:21:46.527Z,9.00
2022-09-18T13:24:51.991Z,9.03
2022-09-18T13:28:01.118Z,9.01
2022-09-18T13:31:22.185Z,8.96
2022-09-18T13:34:29.052Z,8.95
2022-09-18T13:37:36.679Z,8.96
2022-09-18T13:40:39.566Z,8.98
2022-09-18T13:43:43.229Z,8.95
2022-09-18T13:46:45.275Z,8.95
2022-09-18T13:49:49.234Z,8.98
2022-09-18T13:52:55.911Z,9.02
2022-09-18T13:55:59.996Z,9.04
2022-09-18T13:59:02.311Z,9.07
2022-09-18T14:02:22.302Z,9.08
2022-09-18T14:05:31.282Z,9.10
2022-09-18T14:08:38.313Z,9.14
2022-09-18T14:11:40.165Z,9.14
2022-09-18T14:14:42.670Z,9.18
2022-09-18T14:18:06.603Z,9.24
2022-09-18T14:21:15.708Z,9.27
2022-09-18T14:24:36.527Z,9.34
2022-09-18T14:27:42.082Z,9.38
2022-09-18T14:30:43.936Z,9.41
2022-09-18T14:33:45.945Z,9.42
2022-09-18T14:36:48.458Z,9.42
2022-09-18T14:39:55.538Z,9.41
2022-09-18T14:42:57.458Z,9.39
2022-09-18T14:45:59.588Z,9.40
2022-09-18T14:49:03.583Z,9.41
2022-09-18T14:52:17.178Z,9.40
2022-09-18T14:55:24.703Z,9.37
2022-09-18T14:58:29.037Z,9.37
2022-09-18T15:01:34.447Z,9.39
2022-09-18T15:04:37.134Z,9.38
2022-09-18T15:07:45.600Z,9.38
2022-09-18T15:10:50.837Z,9.39
2022-09-18T15:13:54.404Z,9.38
2022-09-18T15:16:59.057Z,9.37
2022-09-18T15:20:01.496Z,9.36
2022-09-18T15:23:17.524Z,9.37
2022-09-18T15:26:24.936Z,9.34
2022-09-18T15:29:28.567Z,9.33
2022-09-18T15:32:36.440Z,9.29
2022-09-18T15:35:40.636Z,9.29
2022-09-18T15:38:44.971Z,9.30
2022-09-18T15:41:48.274Z,9.32
2022-09-18T15:45:10.896Z,9.30
2022-09-18T15:48:29.973Z,9.30
2022-09-18T15:51:36.023Z,9.30
2022-09-18T15:54:37.714Z,9.29
2022-09-18T15:57:47.959Z,9.29
2022-09-18T16:00:55.032Z,9.30
2022-09-18T16:04:06.688Z,9.27
2022-09-18T16:07:18.119Z,9.28
2022-09-18T16:10:34.860Z,9.31
2022-09-18T16:13:39.507Z,9.26
2022-09-18T16:16:41.392Z,9.29
2022-09-18T16:19:43.523Z,9.27
2022-09-18T16:22:46.125Z,9.29
2022-09-18T16:26:02.796Z,9.31
2022-09-18T16:29:15.332Z,9.31
2022-09-18T16:32:17.374Z,9.34
2022-09-18T16:35:19.272Z,9.34
2022-09-18T16:38:21.299Z,9.35
2022-09-18T16:41:23.224Z,9.33
2022-09-18T16:44:26.337Z,9.31
2022-09-18T16:47:27.910Z,9.32
2022-09-18T16:50:29.713Z,9.29
2022-09-18T16:53:31.355Z,9.25
2022-09-18T16:56:37.523Z,9.20
2022-09-18T16:59:43.355Z,9.12
2022-09-18T17:02:45.232Z,9.06
2022-09-18T17:05:47.679Z,9.06
2022-09-18T17:08:49.932Z,9.09
2022-09-18T17:11:52.054Z,9.12
2022-09-18T17:15:08.797Z,9.16
2022-09-18T17:18:10.797Z,9.17
2022-09-18T17:21:16.361Z,9.18
2022-09-18T17:24:25.597Z,9.16
2022-09-18T17:27:30.551Z,9.12
2022-09-18T17:30:39.659Z,9.11
2022-09-18T17:33:41.892Z,9.08
2022-09-18T17:36:44.126Z,9.08
2022-09-18T17:39:46.576Z,9.06
2022-09-18T17:42:52.843Z,9.06
2022-09-18T17:45:57.527Z,9.05
2022-09-18T17:48:59.935Z,9.06
2022-09-18T17:52:04.057Z,9.07
2022-09-18T17:55:18.005Z,9.10
2022-09-18T17:58:22.051Z,9.12
2022-09-18T18:01:25.655Z,9.12
2022-09-18T18:04:27.415Z,9.12
2022-09-18T18:07:29.178Z,9.08
2022-09-18T18:10:36.732Z,9.05
2022-09-18T18:13:39.307Z,9.06
2022-09-18T18:16:43.039Z,9.00
2022-09-18T18:19:47.244Z,8.97
2022-09-18T18:22:49.222Z,8.95
2022-09-18T18:25:51.202Z,8.96
2022-09-18T18:28:53.035Z,8.92
2022-09-18T18:31:57.594Z,8.89
2022-09-18T18:35:01.181Z,8.87
2022-09-18T18:38:03.275Z,8.86
2022-09-18T18:41:05.339Z,8.85
2022-09-18T18:44:07.675Z,8.83
2022-09-18T18:47:10.719Z,8.85
2022-09-18T18:50:14.336Z,8.83
2022-09-18T18:53:16.613Z,8.83
2022-09-18T18:56:18.211Z,8.78
2022-09-18T18:59:22.218Z,8.76
2022-09-18T19:02:25.236Z,8.76
2022-09-18T19:05:31.073Z,8.74
2022-09-18T19:08:34.584Z,8.70
2022-09-18T19:11:45.507Z,8.68
2022-09-18T19:14:47.972Z,8.67
2022-09-18T19:17:52.202Z,8.62
2022-09-18T19:20:57.718Z,8.59
2022-09-18T19:23:59.342Z,8.61
2022-09-18T19:27:01.297Z,8.58
2022-09-18T19:30:03.160Z,8.56
2022-09-18T19:33:06.724Z,8.53
2022-09-18T19:36:11.260Z,8.51
2022-09-18T19:39:17.830Z,8.48
2022-09-18T19:42:21.061Z,8.43
2022-09-18T19:45:24.646Z,8.42
2022-09-18T19:48:28.446Z,8.40
2022-09-18T19:51:30.621Z,8.39
2022-09-18T19:54:32.817Z,8.37
2022-09-18T19:57:34.658Z,8.35
2022-09-18T20:00:39.740Z,8.32
2022-09-18T20:03:43.148Z,8.32
2022-09-18T20:06:44.730Z,8.30
2022-09-18T20:09:46.293Z,8.31
2022-09-18T20:12:52.632Z,8.29
2022-09-18T20:16:01.520Z,8.29
2022-09-18T20:19:05.944Z,8.29
2022-09-18T20:22:08.622Z,8.27
2022-09-18T20:25:10.810Z,8.28
2022-09-18T20:28:16.868Z,8.30
2022-09-18T20:31:19.005Z,8.28
2022-09-18T20:34:24.759Z,8.24
2022-09-18T20:37:28.225Z,8.23
2022-09-18T20:40:30.333Z,8.24
2022-09-18T20:43:32.698Z,8.23
2022-09-18T20:46:37.378Z,8.20
2022-09-18T20:49:40.896Z,8.21
2022-09-18T20:52:46.193Z,8.20
2022-09-18T20:55:49.491Z,8.17
2022-09-18T20:58:54.664Z,8.14
2022-09-18T21:01:57.314Z,8.12
2022-09-18T21:05:07.647Z,8.12
2022-09-18T21:08:10.849Z,8.13
2022-09-18T21:11:13.872Z,8.08
2022-09-18T21:14:16.405Z,8.09
2022-09-18T21:17:17.885Z,8.09
2022-09-18T21:20:21.895Z,8.08
2022-09-18T21:23:42.818Z,8.07
2022-09-18T21:26:48.684Z,8.09
2022-09-18T21:29:50.334Z,8.05
2022-09-18T21:32:55.458Z,8.04
2022-09-18T21:35:59.027Z,8.05
2022-09-18T21:39:00.777Z,8.03
2022-09-18T21:42:04.905Z,8.03
2022-09-18T21:45:06.889Z,8.04
2022-09-18T21:48:09.458Z,8.06
2022-09-18T21:51:14.837Z,8.07
2022-09-18T21:54:21.797Z,8.08
2022-09-18T21:57:23.781Z,8.06
2022-09-18T22:00:25.909Z,8.07
2022-09-18T22:03:27.699Z,8.07
2022-09-18T22:06:32.965Z,8.10
2022-09-18T22:09:38.605Z,8.10
2022-09-18T22:12:41.385Z,8.09
2022-09-18T22:15:43.363Z,8.12
2022-09-18T22:18:47.850Z,8.12
2022-09-18T22:21:52.885Z,8.12
2022-09-18T22:24:54.550Z,8.14
2022-09-18T22:27:56.199Z,8.16
2022-09-18T22:30:57.933Z,8.18
2022-09-18T22:34:05.427Z,8.18
2022-09-18T22:37:09.965Z,8.18
2022-09-18T22:40:11.858Z,8.23
2022-09-18T22:43:15.568Z,8.28
2022-09-18T22:46:17.654Z,8.29
2022-09-18T22:49:19.932Z,8.31
2022-09-18T22:52:23.015Z,8.31
2022-09-18T22:55:24.934Z,8.31
2022-09-18T22:58:26.731Z,8.29
2022-09-18T23:01:31.158Z,8.31
2022-09-18T23:04:33.755Z,8.31
2022-09-18T23:07:38.109Z,8.33
2022-09-18T23:10:40.205Z,8.34
2022-09-18T23:13:43.919Z,8.34
2022-09-18T23:16:45.835Z,8.33
2022-09-18T23:19:51.471Z,8.35
2022-09-18T23:22:54.813Z,8.37
2022-09-18T23:26:01.284Z,8.38
2022-09-18T23:29:05.810Z,8.42
2022-09-18T23:32:08.541Z,8.42
2022-09-18T23:35:10.467Z,8.42
2022-09-18T23:38:13.712Z,8.42
2022-09-18T23:41:16.732Z,8.41
2022-09-18T23:44:19.700Z,8.40
2022-09-18T23:47:21.480Z,8.41
2022-09-18T23:50:23.388Z,8.41
2022-09-18T23:53:26.479Z,8.39
2022-09-18T23:56:29.574Z,8.36
2022-09-18T23:59:31.548Z,8.35
